createdAt,value
2023-12-22T00:02:36.629Z,6.84
2023-12-22T00:05:39.464Z,6.95
2023-12-22T00:08:42.556Z,6.83
2023-12-22T00:11:45.157Z,6.92
2023-12-22T00:14:47.567Z,6.88
2023-12-22T00:17:50.664Z,7.08
2023-12-22T00:20:53.417Z,7.16
2023-12-22T00:23:56.168Z,7.16
2023-12-22T00:26:58.552Z,7.28
2023-12-22T00:30:01.208Z,7.26
2023-12-22T00:33:03.937Z,7.27
2023-12-22T00:36:06.863Z,7.34
2023-12-22T00:39:09.871Z,7.28
2023-12-22T00:42:12.698Z,7.29
2023-12-22T00:45:15.174Z,7.21
2023-12-22T00:48:18.001Z,7.10
2023-12-22T00:51:20.467Z,7.03
2023-12-22T00:54:23.178Z,6.99
2023-12-22T00:57:25.493Z,6.97
2023-12-22T01:00:28.284Z,6.84
2023-12-22T01:03:30.829Z,6.80
2023-12-22T01:06:37.850Z,6.71
2023-12-22T01:09:40.438Z,6.70
2023-12-22T01:12:43.256Z,6.77
2023-12-22T01:15:45.657Z,6.71
2023-12-22T01:18:48.738Z,6.77
2023-12-22T01:21:53.150Z,6.69
2023-12-22T01:24:56.030Z,6.70
2023-12-22T01:27:58.482Z,6.74
2023-12-22T01:31:01.270Z,6.66
2023-12-22T01:34:03.792Z,6.70
2023-12-22T01:37:06.518Z,6.73
2023-12-22T01:40:09.555Z,6.67
2023-12-22T01:43:12.231Z,6.73
2023-12-22T01:46:14.737Z,6.64
2023-12-22T01:49:18.074Z,6.66
2023-12-22T01:52:20.717Z,6.67
2023-12-22T01:55:23.797Z,6.74
2023-12-22T01:58:28.521Z,6.62
2023-12-22T02:01:33.180Z,6.68
2023-12-22T02:04:36.166Z,6.68
2023-12-22T02:07:43.192Z,6.63
2023-12-22T02:10:46.327Z,6.66
2023-12-22T02:13:49.222Z,6.63
2023-12-22T02:17:17.035Z,6.70
2023-12-22T02:20:20.845Z,6.66
2023-12-22T02:23:23.545Z,6.68
2023-12-22T02:26:45.660Z,6.63
2023-12-22T02:29:53.262Z,6.61
2023-12-22T02:33:02.304Z,6.63
2023-12-22T02:36:07.945Z,6.63
2023-12-22T02:39:11.974Z,6.56
2023-12-22T02:42:15.335Z,6.48
2023-12-22T02:45:19.879Z,6.42
2023-12-22T02:48:22.859Z,6.38
2023-12-22T02:51:25.280Z,6.42
2023-12-22T02:54:30.967Z,6.41
2023-12-22T02:57:33.558Z,6.38
2023-12-22T03:00:36.305Z,6.41
2023-12-22T03:03:38.786Z,6.33
2023-12-22T03:06:41.425Z,6.37
2023-12-22T03:09:44.305Z,6.28
2023-12-22T03:12:47.083Z,6.28
2023-12-22T03:15:49.542Z,6.35
2023-12-22T03:18:52.272Z,6.39
2023-12-22T03:21:54.720Z,6.35
2023-12-22T03:24:57.406Z,6.37
2023-12-22T03:27:59.852Z,6.38
2023-12-22T03:31:02.669Z,6.25
2023-12-22T03:34:05.073Z,6.28
2023-12-22T03:37:07.867Z,6.23
2023-12-22T03:40:11.038Z,6.27
2023-12-22T03:43:13.887Z,6.42
2023-12-22T03:46:16.331Z,6.32
2023-12-22T03:49:20.883Z,6.30
2023-12-22T03:52:23.365Z,6.32
2023-12-22T03:55:26.147Z,6.36
2023-12-22T03:58:31.048Z,6.46
2023-12-22T04:01:33.900Z,6.44
2023-12-22T04:04:40.051Z,6.33
2023-12-22T04:07:42.605Z,6.39
2023-12-22T04:10:45.737Z,6.36
2023-12-22T04:13:48.467Z,6.28
2023-12-22T04:16:53.802Z,6.31
2023-12-22T04:19:56.403Z,6.28
2023-12-22T04:22:59.552Z,6.26
2023-12-22T04:26:03.496Z,6.23
2023-12-22T04:29:06.244Z,6.24
2023-12-22T04:32:08.675Z,6.17
2023-12-22T04:35:11.525Z,6.15
2023-12-22T04:38:14.091Z,6.09
2023-12-22T04:41:16.758Z,6.00
2023-12-22T04:44:19.148Z,5.86
2023-12-22T04:47:21.992Z,5.74
2023-12-22T04:50:24.498Z,5.66
2023-12-22T04:53:27.273Z,5.59
2023-12-22T04:56:29.661Z,5.53
2023-12-22T04:59:32.613Z,5.41
2023-12-22T05:02:35.085Z,5.44
2023-12-22T05:05:37.737Z,5.36
2023-12-22T05:08:40.105Z,5.42
2023-12-22T05:11:42.868Z,5.37
2023-12-22T05:14:45.842Z,5.36
2023-12-22T05:17:48.932Z,5.26
2023-12-22T05:20:52.803Z,5.31
2023-12-22T05:23:55.711Z,5.27
2023-12-22T05:26:58.014Z,5.28
2023-12-22T05:30:02.970Z,5.30
2023-12-22T05:33:05.436Z,5.20
2023-12-22T05:36:08.326Z,5.25
2023-12-22T05:39:11.581Z,5.19
2023-12-22T05:42:14.377Z,5.28
2023-12-22T05:45:16.830Z,5.26
2023-12-22T05:48:23.053Z,5.26
2023-12-22T05:51:25.530Z,5.28
2023-12-22T05:54:28.293Z,5.30
2023-12-22T05:57:30.714Z,5.17
2023-12-22T06:00:33.473Z,5.28
2023-12-22T06:03:36.806Z,5.34
2023-12-22T06:06:39.664Z,5.37
2023-12-22T06:09:42.339Z,5.45
2023-12-22T06:12:44.916Z,5.37
2023-12-22T06:15:47.672Z,5.45
2023-12-22T06:18:50.228Z,5.45
2023-12-22T06:21:52.988Z,5.43
2023-12-22T06:24:55.474Z,5.45
2023-12-22T06:27:58.202Z,5.53
2023-12-22T06:31:00.542Z,5.52
2023-12-22T06:34:04.148Z,5.42
2023-12-22T06:37:08.797Z,5.45
2023-12-22T06:40:11.930Z,5.52
2023-12-22T06:43:15.677Z,5.47
2023-12-22T06:46:19.686Z,5.49
2023-12-22T06:49:22.185Z,5.46
2023-12-22T06:52:25.001Z,5.46
2023-12-22T06:55:28.274Z,5.50
2023-12-22T06:58:32.986Z,5.55
2023-12-22T07:01:37.088Z,5.60
2023-12-22T07:04:40.620Z,5.55
2023-12-22T07:07:58.084Z,5.57
2023-12-22T07:11:01.014Z,5.61
2023-12-22T07:14:03.570Z,5.58
2023-12-22T07:17:06.287Z,5.59
2023-12-22T07:20:10.356Z,5.61
2023-12-22T07:23:13.667Z,5.66
2023-12-22T07:26:16.575Z,5.76
2023-12-22T07:29:24.914Z,5.75
2023-12-22T07:32:28.341Z,5.73
2023-12-22T07:35:31.952Z,5.83
2023-12-22T07:38:34.503Z,5.79
2023-12-22T07:41:37.461Z,5.79
2023-12-22T07:44:41.558Z,5.86
2023-12-22T07:47:44.610Z,5.90
2023-12-22T07:50:47.254Z,5.89
2023-12-22T07:53:50.115Z,6.06
2023-12-22T07:56:52.587Z,6.14
2023-12-22T07:59:55.284Z,6.13
2023-12-22T08:02:57.693Z,6.20
2023-12-22T08:06:00.756Z,6.27
2023-12-22T08:09:03.798Z,6.30
2023-12-22T08:12:07.316Z,6.48
2023-12-22T08:15:22.039Z,6.52
2023-12-22T08:18:29.219Z,6.62
2023-12-22T08:21:39.425Z,6.71
2023-12-22T08:24:49.177Z,6.73
2023-12-22T08:27:51.886Z,6.81
2023-12-22T08:30:54.677Z,6.92
2023-12-22T08:33:57.331Z,6.93
2023-12-22T08:37:02.066Z,6.99
2023-12-22T08:40:07.191Z,6.99
2023-12-22T08:43:12.378Z,7.06
2023-12-22T08:46:15.378Z,7.15
2023-12-22T08:49:18.212Z,7.02
2023-12-22T08:52:20.845Z,6.84
2023-12-22T08:55:23.764Z,6.79
2023-12-22T08:58:26.308Z,6.70
2023-12-22T09:01:29.145Z,6.74
2023-12-22T09:04:31.865Z,6.79
2023-12-22T09:07:34.876Z,6.77
2023-12-22T09:10:37.708Z,6.75
2023-12-22T09:13:40.693Z,6.94
2023-12-22T09:16:45.581Z,7.10
2023-12-22T09:19:48.367Z,7.06
2023-12-22T09:22:51.168Z,6.95
2023-12-22T09:25:54.428Z,6.90
2023-12-22T09:28:56.979Z,6.94
2023-12-22T09:32:00.260Z,7.07
2023-12-22T09:35:03.117Z,7.22
2023-12-22T09:38:05.977Z,7.39
2023-12-22T09:41:08.551Z,7.34
2023-12-22T09:44:12.569Z,7.36
2023-12-22T09:47:17.269Z,7.44
2023-12-22T09:50:21.051Z,7.39
2023-12-22T09:53:25.467Z,7.40
2023-12-22T09:56:28.686Z,7.27
2023-12-22T09:59:32.681Z,7.30
2023-12-22T10:02:36.975Z,7.59
2023-12-22T10:05:42.962Z,7.79
2023-12-22T10:08:48.731Z,7.69
2023-12-22T10:11:54.485Z,8.01
2023-12-22T10:14:57.987Z,8.14
2023-12-22T10:18:00.828Z,7.98
2023-12-22T10:21:03.414Z,7.72
2023-12-22T10:24:06.339Z,7.47
2023-12-22T10:27:09.303Z,7.51
2023-12-22T10:30:12.469Z,7.52
2023-12-22T10:33:15.107Z,7.60
2023-12-22T10:36:19.233Z,7.58
2023-12-22T10:39:24.745Z,7.49
2023-12-22T10:42:27.567Z,7.75
2023-12-22T10:45:32.090Z,7.37
2023-12-22T10:48:36.139Z,7.48
2023-12-22T10:51:38.673Z,7.50
2023-12-22T10:54:41.762Z,7.53
2023-12-22T10:57:47.892Z,7.60
2023-12-22T11:00:53.119Z,7.54
2023-12-22T11:04:05.691Z,7.58
2023-12-22T11:07:11.650Z,7.58
2023-12-22T11:10:15.788Z,7.56
2023-12-22T11:13:20.486Z,7.75
2023-12-22T11:16:25.031Z,7.73
2023-12-22T11:19:32.155Z,7.73
2023-12-22T11:22:37.085Z,7.75
2023-12-22T11:25:41.104Z,7.88
2023-12-22T11:28:45.475Z,7.87
2023-12-22T11:31:50.233Z,7.81
2023-12-22T11:34:54.077Z,7.96
2023-12-22T11:37:59.469Z,7.89
2023-12-22T11:41:04.022Z,7.78
2023-12-22T11:44:07.427Z,7.74
2023-12-22T11:47:12.180Z,7.85
2023-12-22T11:50:30.169Z,7.68
2023-12-22T11:53:34.058Z,7.62
2023-12-22T11:56:37.689Z,7.71
2023-12-22T11:59:40.158Z,7.68
2023-12-22T12:02:43.146Z,7.55
2023-12-22T12:05:46.205Z,7.49
2023-12-22T12:08:50.207Z,7.42
2023-12-22T12:11:52.978Z,7.40
2023-12-22T12:15:01.421Z,7.59
2023-12-22T12:18:05.364Z,7.72
2023-12-22T12:21:12.408Z,7.57
2023-12-22T12:24:15.205Z,7.70
2023-12-22T12:27:21.355Z,7.66
2023-12-22T12:30:25.322Z,7.82
2023-12-22T12:33:28.643Z,7.68
2023-12-22T12:36:33.380Z,7.80
2023-12-22T12:39:36.497Z,7.82
2023-12-22T12:42:39.658Z,7.46
2023-12-22T12:45:43.046Z,7.29
2023-12-22T12:48:45.944Z,7.12
2023-12-22T12:51:50.210Z,6.59
2023-12-22T12:54:53.407Z,6.43
2023-12-22T12:57:57.253Z,5.95
2023-12-22T13:01:09.027Z,5.87
2023-12-22T13:04:13.955Z,6.01
2023-12-22T13:07:26.054Z,6.06
2023-12-22T13:10:30.781Z,6.02
2023-12-22T13:13:42.985Z,5.95
2023-12-22T13:16:45.918Z,5.79
2023-12-22T13:19:50.041Z,5.65
2023-12-22T13:22:52.553Z,5.58
2023-12-22T13:25:55.400Z,5.64
2023-12-22T13:29:00.390Z,5.64
2023-12-22T13:32:03.528Z,5.46
2023-12-22T13:35:06.476Z,5.38
2023-12-22T13:38:11.108Z,5.43
2023-12-22T13:41:14.281Z,5.34
2023-12-22T13:44:17.269Z,5.48
2023-12-22T13:47:20.624Z,5.48
2023-12-22T13:50:26.472Z,5.58
2023-12-22T13:53:29.148Z,5.65
2023-12-22T13:56:41.333Z,5.72
2023-12-22T13:59:44.209Z,5.81
2023-12-22T14:02:47.697Z,5.94
2023-12-22T14:05:50.839Z,6.17
2023-12-22T14:08:54.400Z,6.29
2023-12-22T14:12:02.268Z,6.47
2023-12-22T14:15:09.205Z,6.54
2023-12-22T14:18:12.771Z,6.10
2023-12-22T14:21:16.261Z,5.37
2023-12-22T14:24:19.772Z,5.11
2023-12-22T14:27:24.716Z,4.78
2023-12-22T14:30:27.401Z,4.61
2023-12-22T14:33:30.021Z,4.58
2023-12-22T14:36:32.732Z,4.74
2023-12-22T14:39:36.533Z,4.61
2023-12-22T14:42:40.125Z,4.68
2023-12-22T14:45:42.869Z,4.70
2023-12-22T14:48:45.690Z,4.78
2023-12-22T14:51:54.870Z,4.79
2023-12-22T14:54:57.757Z,4.81
2023-12-22T14:58:00.233Z,4.86
2023-12-22T15:01:03.202Z,4.93
2023-12-22T15:04:06.988Z,4.95
2023-12-22T15:07:09.878Z,4.97
2023-12-22T15:10:12.437Z,4.96
2023-12-22T15:13:15.142Z,5.04
2023-12-22T15:16:17.622Z,5.01
2023-12-22T15:19:21.295Z,5.16
2023-12-22T15:22:24.270Z,5.15
2023-12-22T15:25:27.415Z,5.31
2023-12-22T15:28:30.130Z,5.30
2023-12-22T15:31:36.666Z,5.39
2023-12-22T15:34:42.742Z,5.40
2023-12-22T15:37:45.831Z,5.41
2023-12-22T15:40:48.340Z,5.33
2023-12-22T15:43:51.186Z,5.21
2023-12-22T15:46:53.689Z,5.12
2023-12-22T15:49:56.636Z,5.04
2023-12-22T15:52:59.100Z,5.11
2023-12-22T15:56:10.417Z,5.12
2023-12-22T15:59:13.300Z,5.06
2023-12-22T16:02:17.102Z,5.17
2023-12-22T16:05:20.042Z,5.19
2023-12-22T16:08:22.479Z,5.15
2023-12-22T16:11:25.262Z,5.07
2023-12-22T16:14:27.774Z,5.08
2023-12-22T16:17:30.611Z,5.07
2023-12-22T16:20:33.097Z,5.07
2023-12-22T16:23:35.759Z,5.02
2023-12-22T16:26:38.278Z,4.97
2023-12-22T16:29:44.038Z,5.03
2023-12-22T16:32:46.828Z,4.95
2023-12-22T16:35:49.793Z,4.97
2023-12-22T16:38:52.745Z,4.91
2023-12-22T16:41:55.574Z,4.87
2023-12-22T16:45:00.340Z,4.86
2023-12-22T16:48:03.931Z,4.95
2023-12-22T16:51:06.569Z,4.99
2023-12-22T16:54:09.367Z,5.01
2023-12-22T16:57:11.859Z,5.04
2023-12-22T17:00:16.013Z,5.07
2023-12-22T17:03:18.943Z,5.15
2023-12-22T17:06:21.999Z,5.14
2023-12-22T17:09:25.931Z,5.05
2023-12-22T17:12:28.910Z,5.19
2023-12-22T17:15:31.346Z,5.18
2023-12-22T17:18:34.125Z,5.16
2023-12-22T17:21:38.242Z,5.17
2023-12-22T17:24:44.854Z,5.24
2023-12-22T17:27:47.604Z,5.21
2023-12-22T17:30:52.257Z,5.16
2023-12-22T17:33:54.756Z,5.12
2023-12-22T17:36:57.519Z,5.13
2023-12-22T17:40:00.002Z,4.93
2023-12-22T17:43:02.992Z,4.90
2023-12-22T17:46:05.416Z,4.75
2023-12-22T17:49:08.295Z,4.78
2023-12-22T17:52:10.835Z,4.77
2023-12-22T17:55:13.765Z,4.66
2023-12-22T17:58:16.307Z,4.51
2023-12-22T18:01:20.206Z,4.46
2023-12-22T18:04:23.127Z,4.39
2023-12-22T18:07:25.643Z,4.52
2023-12-22T18:10:28.525Z,4.53
2023-12-22T18:13:32.894Z,4.55
2023-12-22T18:16:42.862Z,4.48
2023-12-22T18:19:45.563Z,4.48
2023-12-22T18:22:48.448Z,4.65
2023-12-22T18:25:51.027Z,4.51
2023-12-22T18:28:54.082Z,4.41
2023-12-22T18:31:57.335Z,4.41
2023-12-22T18:35:00.265Z,4.39
2023-12-22T18:38:03.122Z,4.20
2023-12-22T18:41:05.991Z,4.17
2023-12-22T18:44:08.742Z,4.06
2023-12-22T18:47:11.827Z,3.93
2023-12-22T18:50:14.472Z,3.85
2023-12-22T18:53:17.954Z,3.76
2023-12-22T18:56:26.311Z,3.77
2023-12-22T18:59:29.104Z,3.75
2023-12-22T19:02:46.307Z,3.70
2023-12-22T19:05:55.102Z,3.77
2023-12-22T19:08:58.741Z,3.77
2023-12-22T19:12:02.048Z,3.88
2023-12-22T19:15:05.492Z,3.79
2023-12-22T19:18:08.520Z,3.79
2023-12-22T19:21:15.061Z,3.77
2023-12-22T19:24:17.734Z,3.84
2023-12-22T19:27:20.475Z,3.79
2023-12-22T19:30:23.247Z,3.85
2023-12-22T19:33:27.449Z,3.81
2023-12-22T19:36:30.315Z,3.88
2023-12-22T19:39:32.821Z,3.85
2023-12-22T19:42:35.688Z,3.90
2023-12-22T19:45:38.247Z,3.89
2023-12-22T19:48:40.994Z,3.99
2023-12-22T19:51:44.048Z,3.99
2023-12-22T19:54:46.908Z,4.09
2023-12-22T19:57:49.914Z,4.00
2023-12-22T20:00:52.874Z,4.10
2023-12-22T20:03:56.642Z,4.14
2023-12-22T20:06:59.534Z,4.25
2023-12-22T20:10:04.909Z,4.18
2023-12-22T20:13:07.346Z,4.28
2023-12-22T20:16:13.417Z,4.37
2023-12-22T20:19:15.926Z,4.42
2023-12-22T20:22:18.841Z,4.39
2023-12-22T20:25:21.669Z,4.43
2023-12-22T20:28:26.187Z,4.50
2023-12-22T20:31:28.646Z,4.54
2023-12-22T20:34:31.587Z,4.56
2023-12-22T20:37:34.204Z,4.61
2023-12-22T20:40:37.015Z,4.61
2023-12-22T20:43:39.684Z,4.60
2023-12-22T20:46:42.507Z,4.66
2023-12-22T20:49:44.917Z,4.59
2023-12-22T20:52:51.851Z,4.56
2023-12-22T20:55:54.546Z,4.66
2023-12-22T20:58:58.502Z,4.56
2023-12-22T21:02:01.319Z,4.64
2023-12-22T21:05:04.346Z,4.63
2023-12-22T21:08:07.932Z,4.58
2023-12-22T21:11:11.978Z,4.54
2023-12-22T21:14:14.686Z,4.39
2023-12-22T21:17:24.665Z,4.42
2023-12-22T21:20:27.274Z,4.37
2023-12-22T21:23:30.505Z,4.34
2023-12-22T21:26:33.190Z,4.33
2023-12-22T21:29:38.237Z,4.31
2023-12-22T21:32:40.874Z,4.25
2023-12-22T21:35:44.630Z,4.29
2023-12-22T21:38:48.084Z,4.26
2023-12-22T21:41:52.823Z,4.30
2023-12-22T21:44:56.398Z,4.15
2023-12-22T21:47:59.621Z,4.06
2023-12-22T21:51:06.961Z,4.16
2023-12-22T21:54:12.082Z,4.08
2023-12-22T21:57:15.646Z,4.03
2023-12-22T22:00:18.889Z,4.03
2023-12-22T22:03:22.372Z,3.97
2023-12-22T22:06:25.476Z,3.84
2023-12-22T22:09:28.750Z,3.86
2023-12-22T22:12:34.492Z,3.90
2023-12-22T22:15:38.132Z,3.72
2023-12-22T22:18:41.596Z,3.67
2023-12-22T22:21:44.459Z,3.71
2023-12-22T22:24:46.835Z,3.53
2023-12-22T22:27:49.802Z,3.27
2023-12-22T22:30:52.810Z,3.23
2023-12-22T22:33:56.209Z,3.22
2023-12-22T22:36:58.895Z,3.26
2023-12-22T22:40:01.578Z,3.34
2023-12-22T22:43:04.131Z,3.47
2023-12-22T22:46:12.311Z,3.45
2023-12-22T22:49:16.854Z,3.45
2023-12-22T22:52:19.595Z,3.26
2023-12-22T22:55:22.102Z,3.29
2023-12-22T22:58:25.045Z,3.26
2023-12-22T23:01:28.464Z,3.30
2023-12-22T23:04:31.529Z,3.14
2023-12-22T23:07:35.295Z,3.20
2023-12-22T23:10:38.683Z,3.18
2023-12-22T23:13:41.428Z,3.17
2023-12-22T23:16:46.761Z,3.14
2023-12-22T23:19:49.466Z,3.08
2023-12-22T23:22:52.234Z,2.94
2023-12-22T23:25:56.012Z,2.93
2023-12-22T23:28:59.026Z,3.08
2023-12-22T23:32:01.488Z,3.09
2023-12-22T23:35:04.571Z,3.09
2023-12-22T23:38:08.518Z,3.01
2023-12-22T23:41:11.358Z,3.03
2023-12-22T23:44:13.916Z,3.11
2023-12-22T23:47:16.818Z,3.08
2023-12-22T23:50:19.368Z,2.98
2023-12-22T23:53:22.141Z,2.97
2023-12-22T23:56:26.074Z,3.05
2023-12-22T23:59:29.674Z,3.01
